This is the latest recevied weather packets stored in our database for station/object M0JUI-1. If no packets are shown the sender has not sent any weather packets the latest 10 day(s).
| Time | Temp. | Humidity | Pressure | Rain* | Wind** | Luminosity | Snow |
|---|---|---|---|---|---|---|---|
| 1777648658 | 20.56° C | 76% | 1018.7 hPa | 0 mm | - | 358 W/m² | - |
| 1777648358 | 20° C | 78% | 1018.9 hPa | 0 mm | - | 488 W/m² | - |
| 1777648058 | 20° C | 78% | 1018.8 hPa | 0 mm | - | 386 W/m² | - |
| 1777647759 | 20.56° C | 77% | 1018.8 hPa | 0 mm | - | 209 W/m² | - |
| 1777647446 | 20° C | 79% | 1018.9 hPa | 0 mm | - | 270 W/m² | - |
| 1777647146 | 20° C | 78% | 1018.9 hPa | 0 mm | - | 327 W/m² | - |
| 1777647137 | 20° C | 78% | 1018.9 hPa | 0 mm | - | 252 W/m² | - |
| 1777646546 | 20.56° C | 76% | 1018.9 hPa | 0 mm | - | 290 W/m² | - |
| 1777646246 | 20.56° C | 76% | 1018.7 hPa | 0 mm | - | 389 W/m² | - |
| 1777645946 | 20.56° C | 75% | 1018.9 hPa | 0 mm | - | 488 W/m² | - |
| 1777645646 | 21.67° C | 73% | 1019.1 hPa | 0 mm | - | 318 W/m² | - |
| 1777645334 | 22.22° C | 72% | 1019 hPa | 0 mm | - | 574 W/m² | - |
| 1777645034 | 22.22° C | 72% | 1018.9 hPa | 0 mm | - | 646 W/m² | - |
| 1777644735 | 22.22° C | 73% | 1019 hPa | 0 mm | - | 668 W/m² | - |
| 1777644713 | 22.22° C | 74% | 1019.1 hPa | 0 mm | - | 433 W/m² | - |
| 1777643822 | 23.89° C | 70% | 1018.9 hPa | 0 mm | - | 248 W/m² | - |
| 1777643515 | 24.44° C | 67% | 1018.9 hPa | 0 mm | - | 402 W/m² | - |
| 1777643211 | 23.33° C | 70% | 1018.9 hPa | 0 mm | - | 638 W/m² | - |
| 1777642910 | 23.89° C | 68% | 1019 hPa | 0 mm | - | 612 W/m² | - |
| 1777642599 | 23.89° C | 69% | 1019.1 hPa | 0 mm | - | 692 W/m² | - |
| 1777642299 | 22.78° C | 71% | 1019.2 hPa | 0 mm | - | 756 W/m² | - |
| 1777641998 | 22.78° C | 71% | 1019.2 hPa | 0 mm | - | 638 W/m² | - |
| 1777641703 | 23.33° C | 71% | 1019.2 hPa | 0 mm | - | 634 W/m² | - |
| 1777641398 | 22.22° C | 72% | 1019.1 hPa | 0 mm | - | 459 W/m² | - |
| 1777641098 | 23.33° C | 69% | 1019.4 hPa | 0 mm | - | 329 W/m² | - |
* Rain latest hour (hover to see other rain measurements)
** Current wind speed in m/s (hover to see current wind gust speed)